Time;durP1;ratioP1;P1;durP2;ratioP2;P2;SDS_P1;SDS_P2;PMS_P1;PMS_P2;Temp;Humidity;BMP_temperature;BMP_pressure;BME280_temperature;BME280_humidity;BME280_pressure;Samples;Min_cycle;Max_cycle;Signal;HPM_P1;HPM_P2
2023/01/09 00:02:24;;;;;;;;;;;11.60;85.10;;;10.42;69.48;98399.81;6148954;23;20346;-76
2023/01/09 00:04:52;;;;;;;;;;;11.60;85.50;;;10.42;69.74;98402.47;6149997;23;20003;-76
2023/01/09 00:07:19;;;;;;;;;;;11.60;85.50;;;10.40;69.47;98393.97;6150083;23;19917;-76
2023/01/09 00:09:46;;;;;;;;;;;11.60;85.50;;;10.42;69.41;98392.63;6150976;23;20266;-76
2023/01/09 00:12:15;;;;;;;;;;;11.50;85.50;;;10.37;69.18;98399.78;6148822;23;19931;-76
2023/01/09 00:14:42;;;;;;;;;;;11.50;85.40;;;10.36;69.63;98396.34;6148984;23;20252;-76
2023/01/09 00:17:09;;;;;;;;;;;11.70;85.70;;;10.36;69.51;98392.88;6149837;23;19920;-76
2023/01/09 00:19:36;;;;;;;;;;;11.50;85.60;;;10.27;69.54;98397.88;6150201;23;19921;-76
2023/01/09 00:22:05;;;;;;;;;;;11.50;85.60;;;10.18;69.90;98410.88;6150366;23;19920;-76
2023/01/09 00:24:32;;;;;;;;;;;11.40;85.80;;;10.17;69.86;98403.94;6150846;23;19920;-77
2023/01/09 00:26:59;;;;;;;;;;;11.30;85.90;;;10.18;70.00;98402.88;6147483;23;19921;-76
2023/01/09 00:29:26;;;;;;;;;;;11.30;85.90;;;10.18;69.92;98410.88;6148802;23;19920;-76
2023/01/09 00:31:53;;;;;;;;;;;11.40;85.90;;;10.23;70.07;98404.75;6150666;23;19921;-76
2023/01/09 00:34:20;;;;;;;;;;;11.40;86.00;;;10.16;69.99;98402.34;6151038;23;20247;-76
2023/01/09 00:36:47;;;;;;;;;;;11.30;86.00;;;10.14;70.17;98404.44;6150936;23;20339;-76
2023/01/09 00:39:15;;;;;;;;;;;11.30;86.10;;;10.16;70.23;98404.22;6150817;23;19987;-76
2023/01/09 00:41:45;;;;;;;;;;;11.30;86.30;;;10.15;70.42;98406.06;6152199;23;20224;-76
2023/01/09 00:44:14;;;;;;;;;;;11.30;86.40;;;10.19;70.30;98412.47;6152194;23;19927;-76
2023/01/09 00:46:44;;;;;;;;;;;11.30;86.40;;;10.19;70.17;98407.13;6152020;23;19928;-76
2023/01/09 00:49:12;;;;;;;;;;;11.30;86.30;;;10.11;70.07;98407.66;6152481;23;20354;-76
2023/01/09 00:51:41;;;;;;;;;;;11.30;86.10;;;10.06;70.23;98404.97;6150512;23;19924;-76
2023/01/09 00:54:08;;;;;;;;;;;11.30;86.30;;;10.10;70.30;98418.53;6152560;23;19923;-76
2023/01/09 00:56:37;;;;;;;;;;;11.30;86.20;;;10.12;70.12;98424.44;6151129;23;19999;-76
2023/01/09 00:59:04;;;;;;;;;;;11.20;86.10;;;10.14;69.81;98420.44;6152465;23;19924;-76
2023/01/09 01:01:31;;;;;;;;;;;11.30;86.10;;;10.09;69.68;98417.75;6151849;23;19920;-76
2023/01/09 01:03:58;;;;;;;;;;;11.20;85.90;;;10.10;69.15;98422.00;6151791;23;19940;-76
2023/01/09 01:09:09;;;;;;;;;;;11.20;85.70;;;10.09;69.03;98435.59;6152543;23;20361;-76
2023/01/09 01:11:38;;;;;;;;;;;11.20;85.50;;;10.09;69.32;98433.72;6151668;23;19927;-76
2023/01/09 01:14:05;;;;;;;;;;;11.20;85.70;;;9.96;69.66;98436.88;6152410;23;19920;-76
2023/01/09 01:16:32;;;;;;;;;;;11.20;85.70;;;9.98;69.54;98437.41;6151231;23;19924;-76
2023/01/09 01:18:59;;;;;;;;;;;11.20;85.60;;;9.97;69.46;98439.25;6152346;23;19966;-76
2023/01/09 01:21:26;;;;;;;;;;;11.10;85.50;;;9.96;69.28;98444.84;6151676;23;20003;-76
2023/01/09 01:23:53;;;;;;;;;;;11.10;85.50;;;9.91;69.19;98437.63;6151850;23;19916;-76
2023/01/09 01:26:20;;;;;;;;;;;11.10;85.50;;;9.91;69.44;98448.28;6149287;23;20370;-77
2023/01/09 01:28:48;;;;;;;;;;;11.10;85.70;;;9.72;70.19;98452.41;6151987;23;19924;-76
2023/01/09 01:31:16;;;;;;;;;;;11.00;85.70;;;9.83;69.95;98454.06;6152101;23;19927;-76
2023/01/09 01:33:43;;;;;;;;;;;11.00;85.90;;;9.94;69.57;98449.63;6152567;23;20498;-76
2023/01/09 01:36:11;;;;;;;;;;;11.10;85.70;;;9.96;69.00;98450.19;6151242;23;20354;-76
2023/01/09 01:38:38;;;;;;;;;;;11.10;85.30;;;9.99;68.68;98449.66;6152278;23;20007;-76
2023/01/09 01:41:05;;;;;;;;;;;11.10;85.10;;;9.91;68.43;98466.91;6151060;23;19921;-76
2023/01/09 01:43:54;;;;;;;;;;;11.00;84.90;;;9.84;69.22;98468.19;6151475;23;19920;-76
2023/01/09 01:46:21;;;;;;;;;;;11.00;85.40;;;9.94;69.26;98470.91;6151810;23;19920;-76
2023/01/09 01:48:52;;;;;;;;;;;11.10;85.50;;;10.00;68.68;98464.56;6152018;23;20319;-76
2023/01/09 01:51:20;;;;;;;;;;;11.10;85.20;;;10.03;68.47;98472.03;6151361;23;19916;-76
2023/01/09 01:53:49;;;;;;;;;;;11.20;84.80;;;10.05;68.29;98473.41;6150213;23;20255;-76
2023/01/09 01:56:19;;;;;;;;;;;11.20;84.70;;;10.06;68.15;98456.34;6151235;23;19916;-76
2023/01/09 01:58:49;;;;;;;;;;;11.20;84.70;;;10.11;67.91;98463.59;6151867;23;19916;-76
2023/01/09 02:01:18;;;;;;;;;;;11.20;84.30;;;10.17;67.55;98473.19;6151363;23;19927;-76
2023/01/09 02:03:46;;;;;;;;;;;11.30;84.30;;;10.19;67.50;98471.06;6151591;23;20340;-76
2023/01/09 02:06:13;;;;;;;;;;;11.30;84.10;;;10.13;67.42;98465.97;6151358;23;19950;-76
2023/01/09 02:08:40;;;;;;;;;;;11.30;84.10;;;10.02;67.20;98471.25;6151560;23;19924;-76
2023/01/09 02:11:07;;;;;;;;;;;11.20;83.70;;;10.05;67.47;98478.72;6149191;23;20483;-76
2023/01/09 02:13:37;;;;;;;;;;;11.20;83.90;;;10.07;67.38;98486.47;6151553;23;20042;-76
2023/01/09 02:16:14;;;;;;;;;;;11.40;84.00;;;10.07;67.54;98499.78;6150747;23;20339;-77
2023/01/09 02:18:50;;;;;;;;;;;11.20;83.90;;;10.06;67.45;98500.84;6150009;23;19920;-76
2023/01/09 02:21:23;;;;;;;;;;;11.20;83.90;;;10.09;67.44;98487.00;6151750;23;19971;-76
2023/01/09 02:24:06;;;;;;;;;;;11.20;83.90;;;10.12;67.21;98488.34;6151537;23;19927;-76
2023/01/09 02:26:57;;;;;;;;;;;11.20;83.80;;;10.12;67.46;98493.69;6149548;23;19920;-76
2023/01/09 02:30:10;;;;;;;;;;;11.20;83.80;;;10.07;67.21;98497.09;6150348;23;20085;-76
2023/01/09 02:33:07;;;;;;;;;;;11.20;83.80;;;10.09;67.16;98496.84;6151654;23;19920;-76
2023/01/09 02:35:53;;;;;;;;;;;11.20;83.70;;;10.06;67.31;98500.84;6151256;23;19924;-76
2023/01/09 02:38:26;;;;;;;;;;;11.20;83.90;;;10.10;67.30;98496.56;6150761;23;19921;-76
2023/01/09 02:40:58;;;;;;;;;;;11.30;83.90;;;10.09;66.87;98496.84;6151458;23;19920;-76
2023/01/09 02:43:26;;;;;;;;;;;11.20;83.50;;;10.03;66.90;98488.81;6149699;23;19924;-76
2023/01/09 02:45:53;;;;;;;;;;;11.20;83.90;;;10.03;67.16;98483.50;6151322;23;19924;-76
2023/01/09 02:48:21;;;;;;;;;;;11.20;83.80;;;10.05;66.86;98480.56;6150413;23;19920;-76
2023/01/09 02:50:52;;;;;;;;;;;11.20;83.50;;;10.05;66.72;98480.56;6151145;23;19924;-76
2023/01/09 02:53:52;;;;;;;;;;;11.20;83.50;;;9.94;66.88;98489.56;6151315;23;19916;-76
2023/01/09 02:56:33;;;;;;;;;;;11.10;83.50;;;10.01;66.99;98492.81;6150545;23;19943;-76
2023/01/09 02:59:26;;;;;;;;;;;11.10;83.70;;;10.02;66.86;98497.06;6151500;23;20566;-76
2023/01/09 03:02:08;;;;;;;;;;;11.10;83.70;;;10.02;66.85;98503.19;6151400;23;19920;-77
2023/01/09 03:04:44;;;;;;;;;;;11.10;83.60;;;10.03;66.94;98499.47;6150958;23;19927;-76
2023/01/09 03:07:18;;;;;;;;;;;11.20;83.60;;;10.06;66.95;98500.84;6149840;23;20336;-76
2023/01/09 03:09:49;;;;;;;;;;;11.10;83.70;;;10.04;67.09;98503.72;6150677;23;19944;-76
2023/01/09 03:12:19;;;;;;;;;;;11.10;83.90;;;10.00;67.33;98501.84;6151123;23;19920;-76
2023/01/09 03:14:48;;;;;;;;;;;11.10;84.10;;;10.00;67.50;98505.34;6151275;23;19928;-76
2023/01/09 03:17:19;;;;;;;;;;;11.10;84.20;;;10.03;67.57;98504.00;6149717;23;20411;-76
2023/01/09 03:19:49;;;;;;;;;;;11.10;84.20;;;10.00;67.49;98505.34;6150673;23;19929;-76
2023/01/09 03:22:16;;;;;;;;;;;11.10;84.20;;;10.01;67.46;98506.13;6151178;23;19927;-76
2023/01/09 03:24:43;;;;;;;;;;;11.10;84.30;;;10.03;67.36;98517.31;6151192;23;20346;-76
2023/01/09 03:27:10;;;;;;;;;;;11.10;84.20;;;10.03;67.34;98514.66;6150028;23;19920;-76
2023/01/09 03:29:37;;;;;;;;;;;11.10;84.20;;;9.99;67.45;98516.22;6150969;23;19923;-76
2023/01/09 03:32:05;;;;;;;;;;;11.10;84.30;;;10.00;67.58;98523.16;6151094;23;20002;-76
2023/01/09 03:34:32;;;;;;;;;;;11.10;84.30;;;9.99;67.68;98537.53;6150889;23;19927;-76
2023/01/09 03:37:00;;;;;;;;;;;11.10;84.40;;;9.97;67.67;98537.00;6150167;23;19922;-76
2023/01/09 03:39:27;;;;;;;;;;;11.00;84.30;;;9.99;67.46;98529.53;6148985;23;19983;-76
2023/01/09 03:41:54;;;;;;;;;;;11.00;84.30;;;9.98;67.41;98535.94;6151030;23;20406;-76
2023/01/09 03:44:21;;;;;;;;;;;11.00;84.30;;;9.83;67.56;98530.47;6150780;23;19932;-76
2023/01/09 03:46:49;;;;;;;;;;;11.00;84.20;;;9.80;67.47;98535.25;6150189;23;19924;-76
2023/01/09 03:49:16;;;;;;;;;;;10.90;84.10;;;9.75;67.77;98545.84;6148259;23;20015;-81
2023/01/09 03:51:43;;;;;;;;;;;10.90;84.40;;;9.78;67.50;98536.56;6150451;23;19920;-81
2023/01/09 03:54:11;;;;;;;;;;;10.90;84.20;;;9.76;67.02;98542.16;6150808;23;19923;-81
2023/01/09 03:56:38;;;;;;;;;;;10.80;83.70;;;9.75;67.21;98543.19;6150263;23;19981;-81
2023/01/09 03:59:05;;;;;;;;;;;10.90;84.10;;;9.63;66.88;98558.53;6173790;23;19924;-81
2023/01/09 04:01:33;;;;;;;;;;;10.80;83.50;;;9.69;67.40;98549.53;6150981;23;19920;-81
2023/01/09 04:04:00;;;;;;;;;;;10.90;83.90;;;9.76;66.79;98550.13;6150812;23;19920;-81
2023/01/09 04:06:26;;;;;;;;;;;10.80;83.50;;;9.80;66.82;98553.88;6150434;23;19920;-81
2023/01/09 04:08:53;;;;;;;;;;;10.90;83.50;;;9.78;66.25;98553.34;6152461;23;19928;-81
2023/01/09 04:11:22;;;;;;;;;;;10.90;83.10;;;9.86;65.96;98553.91;6150188;23;19916;-81
2023/01/09 04:13:49;;;;;;;;;;;11.00;82.70;;;9.87;65.79;98555.53;6152562;23;20373;-81
2023/01/09 04:16:16;;;;;;;;;;;11.00;82.60;;;9.95;65.52;98558.53;6152562;23;19931;-81
2023/01/09 04:18:43;;;;;;;;;;;11.00;82.20;;;9.96;65.25;98556.69;6151411;23;19920;-81
2023/01/09 04:21:10;;;;;;;;;;;11.10;82.20;;;10.02;64.89;98555.66;6152624;23;20343;-81
2023/01/09 04:23:36;;;;;;;;;;;11.20;82.00;;;10.03;64.57;98552.75;6151190;23;19921;-81
2023/01/09 04:26:04;;;;;;;;;;;11.10;81.50;;;10.07;64.09;98550.38;6152245;23;19936;-81
2023/01/09 04:28:32;;;;;;;;;;;11.20;81.00;;;10.09;63.83;98556.25;6151591;23;20008;-82
2023/01/09 04:30:59;;;;;;;;;;;11.30;80.90;;;10.04;63.71;98549.00;6152511;23;20031;-82
2023/01/09 04:33:26;;;;;;;;;;;11.20;80.60;;;9.99;63.50;98551.63;6152717;23;19930;-81
2023/01/09 04:35:53;;;;;;;;;;;11.20;80.40;;;9.99;63.49;98551.63;6152508;23;20003;-81
2023/01/09 04:38:20;;;;;;;;;;;11.30;80.50;;;9.93;62.91;98560.66;6151711;23;19928;-81
2023/01/09 04:40:47;;;;;;;;;;;11.10;79.70;;;9.91;63.02;98559.31;6152968;23;20339;-81
2023/01/09 04:43:14;;;;;;;;;;;11.00;79.80;;;9.88;63.49;98563.28;6152685;23;19916;-82
2023/01/09 04:45:43;;;;;;;;;;;11.00;80.10;;;9.87;63.34;98569.66;6153079;23;19920;-82
2023/01/09 04:48:10;;;;;;;;;;;11.00;80.00;;;9.87;63.31;98566.19;6151551;23;19930;-82
2023/01/09 04:50:37;;;;;;;;;;;11.00;80.00;;;9.83;63.24;98567.75;6151771;23;19935;-82
2023/01/09 04:53:04;;;;;;;;;;;11.00;79.90;;;9.79;63.21;98576.22;6152534;23;19943;-82
2023/01/09 04:55:31;;;;;;;;;;;10.90;80.00;;;9.81;63.00;98578.66;6150847;23;19926;-81
2023/01/09 04:57:58;;;;;;;;;;;10.90;79.90;;;9.78;62.61;98587.16;6151384;23;19936;-82
2023/01/09 05:00:25;;;;;;;;;;;10.90;79.40;;;9.69;62.91;98581.47;6152172;23;19927;-82
2023/01/09 05:02:53;;;;;;;;;;;10.80;79.80;;;9.68;62.95;98584.38;6152790;23;20083;-82
2023/01/09 05:05:20;;;;;;;;;;;10.80;79.70;;;9.64;62.97;98589.41;6151958;23;20512;-82
2023/01/09 05:07:47;;;;;;;;;;;10.80;79.60;;;9.64;62.75;98597.38;6151923;23;19921;-82
2023/01/09 05:10:14;;;;;;;;;;;10.80;79.50;;;9.64;62.87;98601.91;6152429;23;19920;-82
2023/01/09 05:12:41;;;;;;;;;;;10.80;79.60;;;9.55;63.14;98593.56;6152470;23;19979;-82
2023/01/09 05:15:09;;;;;;;;;;;10.70;79.80;;;9.51;63.52;98598.56;6152129;23;19922;-82
2023/01/09 05:17:36;;;;;;;;;;;10.70;80.00;;;9.54;63.39;98597.28;6150868;23;19927;-82
2023/01/09 05:20:05;;;;;;;;;;;10.70;80.10;;;9.55;63.39;98604.22;6152528;23;19920;-82
2023/01/09 05:22:32;;;;;;;;;;;10.70;80.20;;;9.53;63.62;98609.00;6152074;23;20243;-82
2023/01/09 05:24:59;;;;;;;;;;;10.70;80.30;;;9.52;63.82;98613.50;6151735;23;20358;-82
2023/01/09 05:27:27;;;;;;;;;;;10.70;80.60;;;9.46;63.68;98611.81;6151273;23;19924;-82
2023/01/09 05:29:53;;;;;;;;;;;10.60;80.40;;;9.46;63.60;98611.03;6152125;23;19967;-82
2023/01/09 05:32:20;;;;;;;;;;;10.60;80.10;;;9.37;64.00;98616.00;6150385;23;19920;-82
2023/01/09 05:34:47;;;;;;;;;;;10.60;80.60;;;9.42;64.08;98605.44;6151485;23;19920;-82
2023/01/09 05:37:16;;;;;;;;;;;10.60;80.80;;;9.40;64.15;98612.03;6151558;23;19920;-82
2023/01/09 05:39:43;;;;;;;;;;;10.50;80.90;;;9.44;64.31;98608.63;6152332;23;19928;-82
2023/01/09 05:42:09;;;;;;;;;;;10.60;81.00;;;9.46;64.41;98611.03;6152144;23;19920;-82
2023/01/09 05:44:36;;;;;;;;;;;10.60;81.00;;;9.43;64.27;98622.19;6151989;23;19928;-82
2023/01/09 05:47:03;;;;;;;;;;;10.60;80.90;;;9.38;64.07;98620.28;6151548;23;19922;-82
2023/01/09 05:49:30;;;;;;;;;;;10.50;80.70;;;9.39;64.16;98615.75;6151924;23;20449;-79
2023/01/09 05:51:57;;;;;;;;;;;10.50;81.00;;;9.38;63.71;98619.47;6151682;23;19927;-82
2023/01/09 05:54:26;;;;;;;;;;;10.50;80.50;;;9.38;64.01;98617.63;6151801;23;19927;-82
2023/01/09 05:56:52;;;;;;;;;;;10.50;80.70;;;9.40;64.37;98609.38;6150663;23;19920;-82
2023/01/09 05:59:19;;;;;;;;;;;10.60;81.00;;;9.43;64.41;98612.34;6150376;23;19920;-82
2023/01/09 06:01:46;;;;;;;;;;;10.60;81.20;;;9.45;64.39;98617.41;6151879;23;20538;-83
2023/01/09 06:04:13;;;;;;;;;;;10.60;81.30;;;9.38;64.06;98612.28;6151536;23;19920;-82
2023/01/09 06:06:40;;;;;;;;;;;10.50;80.80;;;9.33;64.30;98612.22;6151021;23;20022;-83
2023/01/09 06:09:08;;;;;;;;;;;10.60;81.20;;;9.25;64.54;98605.47;6151665;23;19921;-82
2023/01/09 06:11:37;;;;;;;;;;;10.50;81.10;;;9.33;64.61;98614.91;6150381;23;19927;-83
2023/01/09 06:14:04;;;;;;;;;;;10.50;81.20;;;9.26;64.71;98614.25;6151256;23;20003;-84
2023/01/09 06:16:31;;;;;;;;;;;10.50;81.20;;;9.29;64.26;98611.91;6149338;23;19920;-82
2023/01/09 06:18:58;;;;;;;;;;;10.50;80.80;;;9.28;64.59;98614.84;6151349;23;19999;-83
2023/01/09 06:21:28;;;;;;;;;;;10.40;81.20;;;9.31;64.67;98622.31;6150887;23;19921;-83
2023/01/09 06:23:55;;;;;;;;;;;10.40;81.20;;;9.29;64.47;98614.59;6151212;23;19924;-82
2023/01/09 06:26:22;;;;;;;;;;;10.50;81.10;;;9.22;64.93;98615.81;6151671;23;20004;-83
2023/01/09 06:28:50;;;;;;;;;;;10.40;81.30;;;9.25;64.84;98621.44;6151715;23;19927;-83
2023/01/09 06:31:17;;;;;;;;;;;10.40;81.20;;;9.21;64.74;98625.66;6151545;23;19924;-84
2023/01/09 06:33:44;;;;;;;;;;;10.40;81.30;;;9.22;65.01;98616.63;6151501;23;19917;-83
2023/01/09 06:36:13;;;;;;;;;;;10.40;81.50;;;9.29;65.13;98619.91;6151396;23;19954;-83
2023/01/09 06:38:43;;;;;;;;;;;10.40;81.70;;;9.28;64.77;98623.63;6151214;23;20007;-83
2023/01/09 06:41:10;;;;;;;;;;;10.40;81.60;;;9.19;64.70;98616.31;6151135;23;19916;-82
2023/01/09 06:43:37;;;;;;;;;;;10.40;81.50;;;9.24;65.23;98622.50;6151814;23;20003;-83
2023/01/09 06:46:05;;;;;;;;;;;10.40;82.00;;;9.25;65.56;98618.78;6151313;23;19920;-83
2023/01/09 06:48:32;;;;;;;;;;;10.40;82.10;;;9.29;65.43;98627.06;6151339;23;19983;-82
2023/01/09 06:50:59;;;;;;;;;;;10.40;82.00;;;9.33;65.38;98630.06;6151533;23;20592;-82
2023/01/09 06:53:26;;;;;;;;;;;10.50;82.10;;;9.35;65.28;98635.91;6151037;23;19940;-82
2023/01/09 06:55:53;;;;;;;;;;;10.50;81.90;;;9.37;64.91;98634.63;6147501;23;19927;-82
2023/01/09 06:58:20;;;;;;;;;;;10.50;81.70;;;9.39;64.89;98632.50;6148895;23;19926;-82
2023/01/09 07:00:48;;;;;;;;;;;10.50;81.80;;;9.38;65.01;98627.44;6151142;23;19920;-82
2023/01/09 07:03:20;;;;;;;;;;;10.50;82.00;;;9.34;65.25;98624.47;6151047;23;19916;-82
2023/01/09 07:05:49;;;;;;;;;;;10.50;81.90;;;9.32;64.46;98623.09;6150154;23;19943;-82
2023/01/09 07:08:16;;;;;;;;;;;10.50;81.40;;;9.27;64.95;98619.34;6150690;23;20007;-82
2023/01/09 07:10:43;;;;;;;;;;;10.40;81.80;;;9.25;64.72;98624.09;6148840;23;20236;-82
2023/01/09 07:13:10;;;;;;;;;;;10.40;81.50;;;9.28;65.09;98617.50;6151004;23;19954;-83
2023/01/09 07:15:37;;;;;;;;;;;10.40;82.00;;;9.25;64.37;98617.97;6150411;23;20344;-82
2023/01/09 07:18:04;;;;;;;;;;;10.40;81.40;;;9.24;64.81;98619.03;6149954;23;19926;-80
2023/01/09 07:20:33;;;;;;;;;;;10.40;81.60;;;9.24;64.23;98625.16;6150943;23;19920;-80
2023/01/09 07:23:00;;;;;;;;;;;10.40;81.20;;;9.28;64.57;98628.94;6151137;23;20001;-79
2023/01/09 07:25:26;;;;;;;;;;;10.40;81.60;;;9.22;64.58;98621.97;6150581;23;20359;-79
2023/01/09 07:27:53;;;;;;;;;;;10.40;81.40;;;9.25;64.38;98624.09;6150412;23;19997;-78
2023/01/09 07:30:20;;;;;;;;;;;10.40;81.20;;;9.27;64.86;98624.69;6146437;23;19921;-78
2023/01/09 07:32:47;;;;;;;;;;;10.40;81.70;;;9.27;64.85;98630.00;6147426;23;19924;-80
2023/01/09 07:35:14;;;;;;;;;;;10.40;81.60;;;9.23;64.86;98631.53;6151329;23;20007;-80
2023/01/09 07:37:43;;;;;;;;;;;10.40;81.50;;;9.29;64.36;98627.06;6149354;23;19916;-80
2023/01/09 07:40:11;;;;;;;;;;;10.40;81.20;;;9.27;63.71;98623.84;6146855;23;19921;-80
2023/01/09 07:42:38;;;;;;;;;;;10.40;80.50;;;9.29;64.38;98632.41;6150094;23;20015;-80
2023/01/09 07:45:06;;;;;;;;;;;10.40;81.20;;;9.25;64.22;98636.59;6150268;23;19927;-82
2023/01/09 07:47:33;;;;;;;;;;;10.40;81.20;;;9.24;65.11;98640.31;6148519;23;19921;-80
2023/01/09 07:50:00;;;;;;;;;;;10.40;81.90;;;9.28;65.20;98626.28;6147974;23;19947;-80
2023/01/09 07:52:27;;;;;;;;;;;10.40;82.00;;;9.25;64.27;98633.94;6149021;23;20239;-82
2023/01/09 07:54:55;;;;;;;;;;;10.40;81.30;;;9.22;65.03;98632.59;6150362;23;20430;-82
2023/01/09 07:57:22;;;;;;;;;;;10.40;81.80;;;9.23;65.01;98630.75;6148075;23;19927;-82
2023/01/09 07:59:49;;;;;;;;;;;10.50;81.80;;;9.20;65.44;98629.38;6149757;23;19920;-83
2023/01/09 08:02:16;;;;;;;;;;;10.40;82.20;;;9.16;65.52;98630.91;6147151;23;20338;-81
2023/01/09 08:04:43;;;;;;;;;;;10.40;82.20;;;9.23;65.39;98630.75;6150082;23;20327;-81
2023/01/09 08:07:10;;;;;;;;;;;10.40;82.00;;;9.23;65.59;98633.41;6150421;23;19916;-83
2023/01/09 08:09:38;;;;;;;;;;;10.40;82.20;;;9.19;66.46;98627.75;6150206;23;20397;-82
2023/01/09 08:12:07;;;;;;;;;;;10.40;82.90;;;9.22;65.77;98635.25;6149573;23;20251;-82
2023/01/09 08:14:34;;;;;;;;;;;10.40;82.30;;;9.19;65.97;98632.28;6150268;23;19947;-83
2023/01/09 08:17:02;;;;;;;;;;;10.40;82.50;;;9.20;65.93;98639.19;6149988;23;20024;-82
2023/01/09 08:19:29;;;;;;;;;;;10.40;82.70;;;9.16;65.89;98643.41;6150591;23;19921;-81
2023/01/09 08:21:56;;;;;;;;;;;10.30;82.70;;;9.22;66.68;98648.56;6149110;23;20015;-81
2023/01/09 08:24:23;;;;;;;;;;;10.40;83.40;;;9.25;66.42;98645.38;6150386;23;20335;-81
2023/01/09 08:26:50;;;;;;;;;;;10.50;83.00;;;9.15;66.65;98647.91;6150086;23;20003;-82
2023/01/09 08:29:18;;;;;;;;;;;10.30;83.30;;;9.12;66.46;98637.75;6150789;23;19944;-78
2023/01/09 08:31:45;;;;;;;;;;;10.30;82.90;;;9.10;67.17;98649.72;6147984;23;20243;-77
2023/01/09 08:34:12;;;;;;;;;;;10.30;83.60;;;9.13;67.43;98647.38;6150729;23;19920;-77
2023/01/09 08:36:39;;;;;;;;;;;10.30;83.80;;;9.13;67.20;98647.38;6149325;23;19932;-77
2023/01/09 08:39:06;;;;;;;;;;;10.30;83.70;;;9.11;67.18;98648.66;6149592;23;19920;-77
2023/01/09 08:47:16;;;;;;;;;;;10.30;84.00;;;9.22;67.46;98661.03;6116102;23;20318;-75
2023/01/09 08:49:43;;;;;;;;;;;10.40;84.10;;;9.19;67.47;98658.88;6142080;23;19963;-76
2023/01/09 08:52:10;;;;;;;;;;;10.40;84.00;;;9.19;67.19;98656.22;6150660;23;20007;-76
2023/01/09 08:54:38;;;;;;;;;;;10.40;83.80;;;9.16;67.10;98660.16;6152826;23;20262;-76
2023/01/09 08:57:06;;;;;;;;;;;10.30;83.50;;;9.19;67.23;98669.50;6152643;23;19920;-76
2023/01/09 08:59:34;;;;;;;;;;;10.40;83.90;;;9.14;67.46;98672.91;6152518;23;20624;-76
2023/01/09 09:02:01;;;;;;;;;;;10.50;84.10;;;9.20;67.78;98671.13;6152439;23;19916;-76
2023/01/09 09:04:28;;;;;;;;;;;10.30;84.20;;;9.19;67.85;98680.16;6152796;23;20331;-76
2023/01/09 09:06:55;;;;;;;;;;;10.40;84.30;;;9.19;67.87;98675.63;6151908;23;19927;-76
2023/01/09 09:09:24;;;;;;;;;;;10.40;84.30;;;9.23;67.93;98695.38;6152214;23;19926;-76
2023/01/09 09:11:50;;;;;;;;;;;10.40;84.50;;;9.28;67.69;98687.47;6152936;23;19920;-76
2023/01/09 09:17:03;;;;;;;;;;;10.40;84.60;;;9.23;68.32;98690.06;6152268;23;19920;-76
2023/01/09 09:19:30;;;;;;;;;;;10.30;84.90;;;9.21;68.17;98700.13;6152196;23;19929;-76
2023/01/09 09:21:57;;;;;;;;;;;10.30;84.90;;;9.18;68.54;98689.19;6151759;23;20262;-76
2023/01/09 09:24:24;;;;;;;;;;;10.30;85.00;;;9.14;68.54;98691.53;6151735;23;19916;-76
2023/01/09 09:26:51;;;;;;;;;;;10.30;85.10;;;9.14;68.88;98688.88;6152213;23;19917;-76
2023/01/09 09:29:18;;;;;;;;;;;10.30;85.40;;;9.12;69.10;98695.47;6152032;23;19959;-76
2023/01/09 09:31:45;;;;;;;;;;;10.30;85.50;;;9.11;68.74;98697.31;6152454;23;19920;-77
2023/01/09 09:34:13;;;;;;;;;;;10.20;85.20;;;9.12;69.12;98700.78;6152564;23;19957;-76
2023/01/09 09:36:40;;;;;;;;;;;10.30;85.60;;;9.11;69.22;98701.84;6152012;23;19927;-77
2023/01/09 09:39:08;;;;;;;;;;;10.30;85.80;;;9.11;69.43;98699.97;6152238;23;20006;-76
2023/01/09 09:44:53;;;;;;;;;;;10.20;86.30;;;9.10;69.72;98713.53;6152338;23;19924;-77
2023/01/09 09:47:37;;;;;;;;;;;10.20;86.20;;;9.10;70.14;98726.84;6151922;23;20330;-77
2023/01/09 09:50:22;;;;;;;;;;;10.20;86.30;;;9.01;70.32;98726.44;6146905;23;19955;-81
2023/01/09 09:52:52;;;;;;;;;;;10.20;86.30;;;9.04;69.97;98736.59;6151792;23;19951;-79
2023/01/09 09:55:24;;;;;;;;;;;10.20;86.50;;;9.05;70.09;98740.84;6152000;23;19999;-80
2023/01/09 09:57:51;;;;;;;;;;;10.20;86.70;;;9.06;70.05;98734.47;6151816;23;20023;-81
2023/01/09 10:00:21;;;;;;;;;;;10.20;86.40;;;9.08;70.04;98743.03;6150233;23;19987;-79
2023/01/09 10:02:53;;;;;;;;;;;10.20;86.40;;;9.06;69.94;98750.44;6151826;23;19921;-82
2023/01/09 10:05:26;;;;;;;;;;;10.20;86.50;;;9.07;69.95;98741.41;6149771;23;19920;-80
2023/01/09 10:07:53;;;;;;;;;;;10.20;86.30;;;9.04;69.44;98747.22;6151521;23;19920;-80
2023/01/09 10:10:27;;;;;;;;;;;10.20;85.90;;;8.98;70.08;98749.00;6150548;23;19994;-80
2023/01/09 10:12:57;;;;;;;;;;;10.20;86.30;;;8.99;69.91;98755.13;6150236;23;19956;-80
2023/01/09 10:15:31;;;;;;;;;;;10.10;86.10;;;8.99;69.75;98749.81;6150437;23;20407;-80
2023/01/09 10:18:12;;;;;;;;;;;10.10;86.30;;;9.04;70.00;98752.56;6151972;23;19927;-80
2023/01/09 10:20:55;;;;;;;;;;;10.10;86.50;;;9.07;70.34;98748.59;6151664;23;19926;-80
2023/01/09 10:23:33;;;;;;;;;;;10.20;86.70;;;9.04;69.84;98747.22;6152103;23;19968;-80
2023/01/09 10:26:04;;;;;;;;;;;10.10;86.30;;;9.05;70.17;98748.84;6151934;23;19921;-79
2023/01/09 10:28:48;;;;;;;;;;;10.20;86.50;;;9.09;69.66;98743.84;6152061;23;19951;-80
2023/01/09 10:31:23;;;;;;;;;;;10.20;86.00;;;9.00;69.66;98741.59;6151581;23;19916;-80
2023/01/09 10:33:59;;;;;;;;;;;10.20;85.90;;;9.04;69.70;98741.91;6151965;23;20466;-80
2023/01/09 10:36:41;;;;;;;;;;;10.10;86.10;;;9.02;69.44;98746.66;6151761;23;19921;-80
2023/01/09 10:39:14;;;;;;;;;;;10.20;85.90;;;9.03;69.94;98749.09;6151502;23;19971;-81
2023/01/09 10:41:53;;;;;;;;;;;10.20;86.30;;;9.10;70.11;98745.44;6150183;23;19995;-80
2023/01/09 10:44:24;;;;;;;;;;;10.20;86.40;;;9.09;69.63;98749.97;6151118;23;19921;-80
2023/01/09 10:46:53;;;;;;;;;;;10.20;86.00;;;9.08;69.56;98752.84;6151415;23;20657;-80
2023/01/09 10:49:22;;;;;;;;;;;10.20;86.10;;;9.10;69.45;98756.88;6149990;23;20327;-80
2023/01/09 10:51:51;;;;;;;;;;;10.20;86.10;;;9.08;68.89;98763.47;6149725;23;19920;-80
2023/01/09 10:54:22;;;;;;;;;;;10.20;85.30;;;9.05;69.08;98770.09;6151596;23;19950;-80
2023/01/09 10:56:54;;;;;;;;;;;10.20;85.50;;;9.07;68.81;98769.84;6151166;23;19924;-80
2023/01/09 10:59:22;;;;;;;;;;;10.20;85.40;;;9.08;68.91;98772.28;6149633;23;20370;-80
2023/01/09 11:01:49;;;;;;;;;;;10.30;85.70;;;9.10;68.52;98770.19;6151682;23;19920;-80
2023/01/09 11:04:22;;;;;;;;;;;10.20;85.00;;;9.10;68.27;98761.41;6151838;23;19920;-80
2023/01/09 11:06:55;;;;;;;;;;;10.20;84.90;;;9.09;68.08;98760.59;6151440;23;20363;-80
2023/01/09 11:09:21;;;;;;;;;;;10.20;84.90;;;9.09;67.93;98768.56;6151421;23;20648;-80
2023/01/09 11:11:48;;;;;;;;;;;10.20;84.60;;;9.07;68.12;98760.03;6151635;23;19920;-80
2023/01/09 11:14:17;;;;;;;;;;;10.20;84.70;;;9.05;68.28;98769.31;6151535;23;19921;-80
2023/01/09 11:16:52;;;;;;;;;;;10.20;84.90;;;9.03;68.37;98758.91;6151059;23;19990;-80
2023/01/09 11:19:19;;;;;;;;;;;10.20;84.90;;;9.07;68.88;98752.03;6151123;23;19927;-80
2023/01/09 11:21:47;;;;;;;;;;;10.20;85.30;;;9.03;68.64;98765.03;6151791;23;19951;-80
2023/01/09 11:24:28;;;;;;;;;;;10.20;85.10;;;9.06;68.56;98768.25;6151366;23;19927;-80
2023/01/09 11:27:25;;;;;;;;;;;10.20;85.10;;;9.13;68.52;98767.03;6151351;23;19921;-80
2023/01/09 11:30:25;;;;;;;;;;;10.30;85.10;;;9.07;68.70;98773.31;6151179;23;19926;-80
2023/01/09 11:32:52;;;;;;;;;;;10.30;85.00;;;9.08;68.38;98772.28;6151056;23;19920;-80
2023/01/09 11:35:25;;;;;;;;;;;10.20;84.70;;;9.05;67.80;98778.09;6151137;23;19920;-80
2023/01/09 11:38:01;;;;;;;;;;;10.20;84.40;;;9.07;67.91;98775.97;6148849;23;20399;-79
2023/01/09 11:40:31;;;;;;;;;;;10.20;84.70;;;9.11;68.50;98784.28;6149560;23;19920;-80
2023/01/09 11:43:11;;;;;;;;;;;10.20;85.10;;;9.16;68.29;98787.00;6147326;23;19971;-80
2023/01/09 11:45:44;;;;;;;;;;;10.30;85.10;;;9.17;67.33;98789.41;6148635;23;19923;-79
2023/01/09 11:48:32;;;;;;;;;;;10.30;84.00;;;9.16;67.44;98797.66;6150751;23;19924;-81
2023/01/09 11:51:00;;;;;;;;;;;10.30;84.30;;;9.19;67.78;98803.31;6146649;23;19943;-81